createdAt,value
2023-02-25T00:01:41.767Z,3.40
2023-02-25T00:04:13.803Z,3.45
2023-02-25T00:06:41.713Z,3.42
2023-02-25T00:09:11.316Z,4.05
2023-02-25T00:11:39.367Z,4.10
2023-02-25T00:14:07.561Z,4.00
2023-02-25T00:16:35.552Z,3.60
2023-02-25T00:19:04.178Z,4.20
2023-02-25T00:21:33.516Z,3.60
2023-02-25T00:24:15.294Z,4.38
2023-02-25T00:26:44.292Z,3.00
2023-02-25T00:29:12.234Z,3.90
2023-02-25T00:31:40.363Z,3.87
2023-02-25T00:34:08.482Z,3.25
2023-02-25T00:36:38.203Z,3.40
2023-02-25T00:39:07.008Z,3.70
2023-02-25T00:41:35.065Z,3.50
2023-02-25T00:44:03.650Z,2.90
2023-02-25T00:46:32.588Z,4.22
2023-02-25T00:49:01.432Z,3.72
2023-02-25T00:51:31.959Z,4.20
2023-02-25T00:54:01.581Z,3.55
2023-02-25T00:56:29.747Z,3.25
2023-02-25T00:58:57.767Z,3.13
2023-02-25T01:01:27.959Z,3.50
2023-02-25T01:03:57.845Z,3.40
2023-02-25T01:06:27.553Z,3.00
2023-02-25T01:08:56.303Z,4.10
2023-02-25T01:11:29.078Z,2.88
2023-02-25T01:13:58.092Z,2.70
2023-02-25T01:16:27.995Z,2.70
2023-02-25T01:18:57.501Z,2.83
2023-02-25T01:21:29.973Z,2.40
2023-02-25T01:24:00.180Z,3.05
2023-02-25T01:26:31.419Z,3.63
2023-02-25T01:28:59.502Z,3.30
2023-02-25T01:31:29.665Z,2.80
2023-02-25T01:33:59.590Z,3.10
2023-02-25T01:36:27.928Z,3.22
2023-02-25T01:38:56.415Z,3.30
2023-02-25T01:41:24.531Z,3.15
2023-02-25T01:44:12.583Z,3.70
2023-02-25T01:46:42.494Z,3.30
2023-02-25T01:49:16.072Z,3.10
2023-02-25T01:51:46.426Z,3.20
2023-02-25T01:54:16.264Z,3.40
2023-02-25T01:56:49.067Z,3.70
2023-02-25T01:59:21.129Z,3.70
2023-02-25T02:01:49.330Z,3.92
2023-02-25T02:04:19.740Z,4.03
2023-02-25T02:06:50.074Z,3.15
2023-02-25T02:09:21.305Z,3.08
2023-02-25T02:11:49.445Z,3.28
2023-02-25T02:14:22.437Z,3.35
2023-02-25T02:17:18.008Z,3.50
2023-02-25T02:20:11.483Z,3.90
2023-02-25T02:22:47.562Z,3.90
2023-02-25T02:25:47.034Z,3.90
2023-02-25T02:28:51.599Z,4.00
2023-02-25T02:31:38.575Z,3.22
2023-02-25T02:34:20.028Z,3.17
2023-02-25T02:36:58.790Z,4.00
2023-02-25T02:39:32.011Z,3.50
2023-02-25T02:42:09.198Z,3.33
2023-02-25T02:44:43.383Z,2.90
2023-02-25T02:47:21.797Z,3.70
2023-02-25T02:49:53.971Z,2.90
2023-02-25T02:52:26.966Z,2.67
2023-02-25T02:54:59.311Z,3.25
2023-02-25T02:57:29.306Z,4.25
2023-02-25T03:00:00.976Z,3.60
2023-02-25T03:02:32.838Z,2.95
2023-02-25T03:05:03.912Z,3.43
2023-02-25T03:07:35.159Z,3.00
2023-02-25T03:10:05.811Z,2.90
2023-02-25T03:12:34.519Z,2.70
2023-02-25T03:15:02.441Z,3.22
2023-02-25T03:17:38.151Z,3.10
2023-02-25T03:20:13.100Z,2.80
2023-02-25T03:22:44.291Z,2.42
2023-02-25T03:25:17.260Z,2.20
2023-02-25T03:27:46.885Z,2.70
2023-02-25T03:30:22.424Z,2.67
2023-02-25T03:32:54.922Z,3.20
2023-02-25T03:35:24.989Z,3.08
2023-02-25T03:37:59.959Z,2.40
2023-02-25T03:40:29.124Z,2.60
2023-02-25T03:43:06.127Z,2.80
2023-02-25T03:45:37.654Z,2.90
2023-02-25T03:48:07.899Z,2.70
2023-02-25T03:50:42.043Z,3.90
2023-02-25T03:53:10.021Z,3.35
2023-02-25T03:55:38.376Z,2.90
2023-02-25T03:58:08.510Z,3.27
2023-02-25T04:00:38.627Z,2.90
2023-02-25T04:03:07.994Z,2.60
2023-02-25T04:05:37.483Z,2.80
2023-02-25T04:08:06.772Z,3.35
2023-02-25T04:10:35.114Z,3.63
2023-02-25T04:13:03.126Z,2.67
2023-02-25T04:15:31.178Z,2.90
2023-02-25T04:17:59.142Z,2.85
2023-02-25T04:20:30.082Z,3.00
2023-02-25T04:22:58.095Z,2.53
2023-02-25T04:25:26.843Z,3.45
2023-02-25T04:27:54.838Z,3.40
2023-02-25T04:30:22.868Z,3.35
2023-02-25T04:32:50.958Z,3.22
2023-02-25T04:35:19.163Z,2.70
2023-02-25T04:37:48.448Z,3.00
2023-02-25T04:40:19.635Z,2.75
2023-02-25T04:42:47.954Z,2.20
2023-02-25T04:45:17.136Z,2.50
2023-02-25T04:47:45.306Z,3.20
2023-02-25T04:50:14.269Z,2.33
2023-02-25T04:52:42.311Z,1.77
2023-02-25T04:55:12.324Z,1.80
2023-02-25T04:57:42.341Z,1.92
2023-02-25T05:00:19.205Z,2.40
2023-02-25T05:02:48.282Z,3.53
2023-02-25T05:05:17.088Z,3.30
2023-02-25T05:07:45.396Z,2.90
2023-02-25T05:10:15.545Z,2.70
2023-02-25T05:12:43.693Z,3.10
2023-02-25T05:15:12.909Z,3.20
2023-02-25T05:17:40.924Z,3.10
2023-02-25T05:20:13.020Z,3.10
2023-02-25T05:22:41.942Z,3.50
2023-02-25T05:25:11.774Z,3.40
2023-02-25T05:27:41.140Z,3.15
2023-02-25T05:30:10.850Z,3.53
2023-02-25T05:32:39.080Z,3.40
2023-02-25T05:35:09.867Z,3.10
2023-02-25T05:37:38.153Z,3.40
2023-02-25T05:40:09.407Z,4.38
2023-02-25T05:42:38.441Z,3.80
2023-02-25T05:45:09.151Z,3.90
2023-02-25T05:47:37.354Z,3.80
2023-02-25T05:50:05.915Z,3.50
2023-02-25T05:52:33.936Z,3.60
2023-02-25T05:55:02.175Z,5.03
2023-02-25T05:57:30.356Z,4.47
2023-02-25T05:59:58.511Z,4.15
2023-02-25T06:02:28.208Z,3.70
2023-02-25T06:04:56.563Z,3.58
2023-02-25T06:07:24.963Z,4.10
2023-02-25T06:09:52.935Z,3.63
2023-02-25T06:12:20.964Z,4.13
2023-02-25T06:14:48.926Z,4.50
2023-02-25T06:17:16.937Z,4.60
2023-02-25T06:19:46.494Z,4.43
2023-02-25T06:22:14.665Z,4.40
2023-02-25T06:24:42.766Z,4.20
2023-02-25T06:27:10.742Z,3.60
2023-02-25T06:29:41.583Z,3.80
2023-02-25T06:32:10.217Z,4.30
2023-02-25T06:34:38.503Z,4.50
2023-02-25T06:37:08.356Z,3.80
2023-02-25T06:39:36.357Z,3.67
2023-02-25T06:42:04.446Z,3.00
2023-02-25T06:44:32.435Z,3.60
2023-02-25T06:47:00.382Z,4.15
2023-02-25T06:49:28.420Z,4.33
2023-02-25T06:51:56.392Z,3.80
2023-02-25T06:54:25.751Z,4.40
2023-02-25T06:56:54.467Z,4.25
2023-02-25T06:59:22.635Z,3.25
2023-02-25T07:01:50.600Z,3.92
2023-02-25T07:04:20.378Z,3.72
2023-02-25T07:06:48.402Z,4.53
2023-02-25T07:09:16.428Z,4.30
2023-02-25T07:11:45.938Z,3.90
2023-02-25T07:14:16.456Z,4.00
2023-02-25T07:16:44.553Z,3.60
2023-02-25T07:19:15.049Z,3.28
2023-02-25T07:21:43.243Z,3.30
2023-02-25T07:24:11.570Z,3.00
2023-02-25T07:26:39.556Z,3.60
2023-02-25T07:29:08.891Z,3.58
2023-02-25T07:31:36.957Z,3.15
2023-02-25T07:34:05.034Z,3.33
2023-02-25T07:36:35.270Z,3.28
2023-02-25T07:39:04.357Z,2.60
2023-02-25T07:41:32.336Z,2.72
2023-02-25T07:44:00.546Z,3.50
2023-02-25T07:46:30.832Z,3.83
2023-02-25T07:48:59.317Z,3.60
2023-02-25T07:51:27.990Z,2.90
2023-02-25T07:53:57.497Z,3.00
2023-02-25T07:56:27.021Z,3.70
2023-02-25T07:58:55.588Z,3.50
2023-02-25T08:01:25.803Z,4.20
2023-02-25T08:03:57.341Z,3.72
2023-02-25T08:06:25.435Z,3.58
2023-02-25T08:08:55.397Z,3.30
2023-02-25T08:11:25.385Z,4.00
2023-02-25T08:13:53.785Z,3.22
2023-02-25T08:16:22.529Z,4.20
2023-02-25T08:18:52.671Z,4.90
2023-02-25T08:21:24.654Z,4.20
2023-02-25T08:23:53.341Z,3.50
2023-02-25T08:26:22.618Z,3.80
2023-02-25T08:28:52.080Z,3.22
2023-02-25T08:31:21.353Z,3.28
2023-02-25T08:33:52.788Z,4.60
2023-02-25T08:36:24.133Z,4.35
2023-02-25T08:38:53.540Z,4.28
2023-02-25T08:41:23.511Z,3.70
2023-02-25T08:43:54.425Z,3.40
2023-02-25T08:46:22.982Z,3.25
2023-02-25T08:48:52.146Z,3.53
2023-02-25T08:51:23.568Z,4.03
2023-02-25T08:53:53.734Z,4.55
2023-02-25T08:56:21.714Z,4.45
2023-02-25T08:58:49.691Z,3.50
2023-02-25T09:01:18.893Z,3.80
2023-02-25T09:03:52.275Z,4.20
2023-02-25T09:06:23.061Z,4.00
2023-02-25T09:08:51.676Z,3.20
2023-02-25T09:11:20.389Z,4.07
2023-02-25T09:13:48.386Z,3.60
2023-02-25T09:16:17.372Z,3.90
2023-02-25T09:18:46.133Z,3.35
2023-02-25T09:21:14.968Z,3.53
2023-02-25T09:23:44.725Z,3.20
2023-02-25T09:26:13.035Z,2.40
2023-02-25T09:28:41.192Z,3.07
2023-02-25T09:31:09.280Z,2.97
2023-02-25T09:33:38.447Z,3.42
2023-02-25T09:36:08.809Z,2.90
2023-02-25T09:38:37.359Z,3.53
2023-02-25T09:41:23.377Z,3.10
2023-02-25T09:44:05.624Z,2.70
2023-02-25T09:46:35.742Z,3.08
2023-02-25T09:49:09.213Z,3.03
2023-02-25T09:51:41.764Z,2.60
2023-02-25T09:54:21.706Z,2.22
2023-02-25T09:56:51.586Z,2.63
2023-02-25T09:59:22.180Z,2.00
2023-02-25T10:01:57.846Z,2.40
2023-02-25T10:04:33.643Z,3.30
2023-02-25T10:07:09.518Z,3.10
2023-02-25T10:09:49.775Z,2.83
2023-02-25T10:12:29.372Z,2.50
2023-02-25T10:15:27.617Z,2.70
2023-02-25T10:18:06.658Z,2.70
2023-02-25T10:20:50.040Z,2.13
2023-02-25T10:23:28.908Z,2.17
2023-02-25T10:26:02.722Z,3.20
2023-02-25T10:28:33.065Z,2.92
2023-02-25T10:31:06.496Z,2.20
2023-02-25T10:33:37.861Z,2.10
2023-02-25T10:36:10.301Z,1.90
2023-02-25T10:38:45.266Z,2.10
2023-02-25T10:41:14.045Z,2.22
2023-02-25T10:43:44.233Z,2.38
2023-02-25T10:46:16.902Z,2.80
2023-02-25T10:48:49.166Z,2.50
2023-02-25T10:51:17.942Z,1.80
2023-02-25T10:54:04.918Z,2.45
2023-02-25T10:56:35.440Z,2.00
2023-02-25T10:59:06.959Z,2.33
2023-02-25T11:01:39.046Z,2.20
2023-02-25T11:04:14.581Z,2.77
2023-02-25T11:06:44.553Z,2.88
2023-02-25T11:09:32.920Z,2.10
2023-02-25T11:12:02.666Z,1.80
2023-02-25T11:14:33.743Z,2.45
2023-02-25T11:17:08.356Z,1.90
2023-02-25T11:19:39.897Z,1.70
2023-02-25T11:22:11.133Z,2.70
2023-02-25T11:24:40.083Z,2.47
2023-02-25T11:27:20.018Z,2.40
2023-02-25T11:29:51.971Z,3.42
2023-02-25T11:32:22.600Z,2.72
2023-02-25T11:34:53.118Z,2.03
2023-02-25T11:37:37.178Z,1.73
2023-02-25T11:40:26.407Z,2.17
2023-02-25T11:43:17.839Z,2.27
2023-02-25T11:45:53.983Z,2.40
2023-02-25T11:48:26.520Z,1.90
2023-02-25T11:51:10.817Z,2.10
2023-02-25T11:54:09.232Z,1.60
2023-02-25T11:56:39.361Z,1.63
2023-02-25T11:59:21.213Z,1.80
2023-02-25T12:02:20.553Z,2.42
2023-02-25T12:05:30.094Z,2.20
2023-02-25T12:08:15.910Z,1.73
2023-02-25T12:11:19.768Z,1.70
2023-02-25T12:14:20.282Z,2.20
2023-02-25T12:17:26.912Z,2.50
2023-02-25T12:20:17.852Z,2.72
2023-02-25T12:23:28.166Z,2.90
2023-02-25T12:26:06.457Z,2.90
2023-02-25T12:28:51.364Z,2.70
2023-02-25T12:31:45.210Z,2.08
2023-02-25T12:34:44.414Z,1.90
2023-02-25T12:37:30.857Z,1.80
2023-02-25T12:40:25.503Z,2.08
2023-02-25T12:43:07.383Z,2.60
2023-02-25T12:45:55.040Z,2.40
2023-02-25T12:48:54.951Z,2.00
2023-02-25T12:51:41.485Z,2.13
2023-02-25T12:54:34.310Z,2.50
2023-02-25T12:57:23.437Z,1.95
2023-02-25T13:00:10.405Z,2.40
2023-02-25T13:02:52.651Z,2.45
2023-02-25T13:05:55.619Z,2.72
2023-02-25T13:08:43.935Z,2.40
2023-02-25T13:11:27.349Z,2.08
2023-02-25T13:14:22.575Z,2.57
2023-02-25T13:17:13.660Z,2.50
2023-02-25T13:20:01.396Z,2.72
2023-02-25T13:22:46.190Z,3.20
2023-02-25T13:25:19.764Z,3.45
2023-02-25T13:28:06.641Z,2.80
2023-02-25T13:30:47.388Z,2.17
2023-02-25T13:33:27.016Z,2.60
2023-02-25T13:36:04.035Z,2.70
2023-02-25T13:39:02.698Z,2.67
2023-02-25T13:41:41.664Z,3.03
2023-02-25T13:44:45.614Z,3.88
2023-02-25T13:47:38.066Z,2.95
2023-02-25T13:50:47.483Z,2.70
2023-02-25T13:53:42.254Z,2.35
2023-02-25T13:56:43.016Z,2.70
2023-02-25T13:59:27.058Z,2.70
2023-02-25T14:02:04.581Z,2.00
2023-02-25T14:05:03.069Z,3.53
2023-02-25T14:07:46.995Z,2.88
2023-02-25T14:10:29.322Z,2.78
2023-02-25T14:13:30.207Z,1.87
2023-02-25T14:16:07.385Z,2.00
2023-02-25T14:18:57.705Z,1.90
2023-02-25T14:21:57.985Z,2.15
2023-02-25T14:24:34.755Z,2.25
2023-02-25T14:27:16.712Z,2.50
2023-02-25T14:30:07.778Z,2.40
2023-02-25T14:32:59.006Z,2.10
2023-02-25T14:35:48.064Z,1.80
2023-02-25T14:38:27.610Z,2.55
2023-02-25T14:41:03.068Z,2.65
2023-02-25T14:43:33.334Z,2.33
2023-02-25T14:46:10.741Z,2.60
2023-02-25T14:48:44.508Z,3.40
2023-02-25T14:51:52.026Z,3.10
2023-02-25T14:55:03.112Z,2.40
2023-02-25T14:57:50.644Z,2.38
2023-02-25T15:00:47.933Z,2.00
2023-02-25T15:03:51.733Z,2.47
2023-02-25T15:06:32.536Z,2.30
2023-02-25T15:09:21.965Z,2.92
2023-02-25T15:12:07.278Z,2.50
2023-02-25T15:14:50.865Z,2.90
2023-02-25T15:18:11.376Z,1.80
2023-02-25T15:20:40.487Z,2.42
2023-02-25T15:23:10.386Z,1.75
2023-02-25T15:25:47.682Z,2.28
2023-02-25T15:28:50.554Z,2.30
2023-02-25T15:31:39.091Z,2.70
2023-02-25T15:34:39.668Z,2.50
2023-02-25T15:37:30.255Z,2.30
2023-02-25T15:40:00.040Z,2.90
2023-02-25T15:42:49.578Z,2.08
2023-02-25T15:45:41.927Z,2.70
2023-02-25T15:48:30.788Z,2.30
2023-02-25T15:51:00.459Z,2.85
2023-02-25T15:53:52.480Z,3.00
2023-02-25T15:56:49.171Z,2.90
2023-02-25T15:59:43.663Z,2.70
2023-02-25T16:02:39.573Z,2.80
2023-02-25T16:05:23.598Z,2.25
2023-02-25T16:08:00.306Z,2.75
2023-02-25T16:10:34.308Z,2.22
2023-02-25T16:13:03.790Z,2.70
2023-02-25T16:15:37.053Z,2.90
2023-02-25T16:18:16.898Z,2.90
2023-02-25T16:20:49.093Z,2.22
2023-02-25T16:23:17.743Z,2.40
2023-02-25T16:25:54.390Z,2.58
2023-02-25T16:28:36.316Z,2.83
2023-02-25T16:31:10.861Z,2.80
2023-02-25T16:33:48.649Z,2.28
2023-02-25T16:36:27.008Z,3.13
2023-02-25T16:38:58.952Z,3.40
2023-02-25T16:41:37.660Z,2.95
2023-02-25T16:44:07.133Z,2.67
2023-02-25T16:46:39.120Z,2.38
2023-02-25T16:49:11.929Z,2.90
2023-02-25T16:51:42.232Z,2.83
2023-02-25T16:54:15.176Z,2.60
2023-02-25T16:56:46.334Z,2.90
2023-02-25T16:59:19.617Z,3.40
2023-02-25T17:01:50.447Z,2.10
2023-02-25T17:04:23.188Z,2.65
2023-02-25T17:07:07.098Z,3.60
2023-02-25T17:09:35.816Z,3.00
2023-02-25T17:12:05.203Z,2.15
2023-02-25T17:14:33.464Z,2.90
2023-02-25T17:17:01.707Z,3.22
2023-02-25T17:19:31.924Z,2.70
2023-02-25T17:22:00.862Z,2.65
2023-02-25T17:24:32.551Z,2.40
2023-02-25T17:27:02.056Z,2.60
2023-02-25T17:29:34.886Z,2.30
2023-02-25T17:32:14.654Z,2.67
2023-02-25T17:34:45.093Z,2.80
2023-02-25T17:37:14.289Z,2.90
2023-02-25T17:39:44.273Z,2.80
2023-02-25T17:42:33.289Z,2.88
2023-02-25T17:45:02.725Z,3.22
2023-02-25T17:47:33.483Z,2.60
2023-02-25T17:50:21.177Z,2.60
2023-02-25T17:52:50.275Z,3.33
2023-02-25T17:55:25.200Z,3.20
2023-02-25T17:57:55.204Z,2.97
2023-02-25T18:00:26.122Z,3.10
2023-02-25T18:03:15.260Z,2.53
2023-02-25T18:05:51.918Z,2.85
2023-02-25T18:08:22.048Z,3.40
2023-02-25T18:10:56.399Z,3.72
2023-02-25T18:13:35.169Z,3.80
2023-02-25T18:16:29.866Z,3.50
2023-02-25T18:18:59.898Z,2.92
2023-02-25T18:21:29.595Z,2.67
2023-02-25T18:23:58.338Z,3.00
2023-02-25T18:26:27.452Z,3.33
2023-02-25T18:28:57.524Z,4.23
2023-02-25T18:31:26.681Z,4.70
2023-02-25T18:33:55.146Z,4.00
2023-02-25T18:36:26.145Z,3.70
2023-02-25T18:38:58.338Z,3.65
2023-02-25T18:41:26.833Z,3.50
2023-02-25T18:43:55.037Z,3.90
2023-02-25T18:46:23.340Z,3.80
2023-02-25T18:48:51.642Z,3.70
2023-02-25T18:51:20.157Z,3.50
2023-02-25T18:53:48.180Z,3.67
2023-02-25T18:56:18.736Z,3.60
2023-02-25T18:58:46.745Z,3.10
2023-02-25T19:01:21.811Z,3.20
2023-02-25T19:03:51.077Z,3.30
2023-02-25T19:06:19.235Z,3.60
2023-02-25T19:08:47.482Z,3.70
2023-02-25T19:11:21.557Z,3.47
2023-02-25T19:13:49.763Z,3.50
2023-02-25T19:16:19.057Z,3.83
2023-02-25T19:18:48.178Z,3.90
2023-02-25T19:21:18.605Z,3.92
2023-02-25T19:23:47.128Z,4.10
2023-02-25T19:26:16.028Z,4.00
2023-02-25T19:28:45.395Z,4.00
2023-02-25T19:31:13.458Z,3.28
2023-02-25T19:33:41.489Z,3.90
2023-02-25T19:36:09.886Z,4.20
2023-02-25T19:38:37.930Z,3.80
2023-02-25T19:41:07.198Z,4.20
2023-02-25T19:43:35.597Z,4.40
2023-02-25T19:46:09.034Z,3.95
2023-02-25T19:48:37.514Z,4.20
2023-02-25T19:51:09.121Z,4.30
2023-02-25T19:53:37.552Z,4.00
2023-02-25T19:56:07.915Z,4.32
2023-02-25T19:58:36.011Z,5.00
2023-02-25T20:01:07.889Z,5.90
2023-02-25T20:03:36.414Z,5.47
2023-02-25T20:06:08.633Z,5.70
2023-02-25T20:08:38.441Z,5.75
2023-02-25T20:11:09.414Z,5.50
2023-02-25T20:13:38.384Z,5.18
2023-02-25T20:16:09.186Z,5.78
2023-02-25T20:18:37.339Z,5.20
2023-02-25T20:21:05.889Z,5.57
2023-02-25T20:23:33.878Z,5.70
2023-02-25T20:26:06.328Z,4.72
2023-02-25T20:28:34.630Z,4.78
2023-02-25T20:31:09.170Z,4.93
2023-02-25T20:33:37.672Z,5.53
2023-02-25T20:36:18.597Z,5.40
2023-02-25T20:39:12.878Z,4.70
2023-02-25T20:41:42.081Z,4.60
2023-02-25T20:44:10.335Z,5.22
2023-02-25T20:46:41.104Z,4.40
2023-02-25T20:49:13.050Z,4.50
2023-02-25T20:51:42.421Z,5.47
2023-02-25T20:54:11.078Z,5.20
2023-02-25T20:56:39.497Z,5.15
2023-02-25T20:59:07.695Z,4.88
2023-02-25T21:01:35.690Z,4.50
2023-02-25T21:04:06.358Z,4.95
2023-02-25T21:06:34.974Z,4.68
2023-02-25T21:09:03.078Z,4.97
2023-02-25T21:11:31.075Z,4.93
2023-02-25T21:13:59.211Z,4.60
2023-02-25T21:16:27.573Z,4.03
2023-02-25T21:18:58.030Z,4.20
2023-02-25T21:21:27.982Z,3.63
2023-02-25T21:23:55.954Z,4.95
2023-02-25T21:26:24.519Z,5.22
2023-02-25T21:28:52.719Z,4.53
2023-02-25T21:31:20.798Z,3.72
2023-02-25T21:33:48.862Z,3.55
2023-02-25T21:36:16.866Z,4.05
2023-02-25T21:38:46.207Z,3.88
2023-02-25T21:41:16.375Z,4.15
2023-02-25T21:43:45.185Z,4.32
2023-02-25T21:46:16.229Z,3.50
2023-02-25T21:48:46.816Z,3.60
2023-02-25T21:51:17.382Z,4.10
2023-02-25T21:53:47.078Z,4.00
2023-02-25T21:56:17.517Z,3.90
2023-02-25T21:58:46.113Z,4.22
2023-02-25T22:01:16.660Z,3.60
2023-02-25T22:03:45.275Z,4.03
2023-02-25T22:06:14.023Z,3.30
2023-02-25T22:08:42.680Z,3.83
2023-02-25T22:11:14.432Z,3.55
2023-02-25T22:13:44.431Z,4.00
2023-02-25T22:16:13.660Z,4.20
2023-02-25T22:18:41.954Z,3.92
2023-02-25T22:21:12.151Z,4.50
2023-02-25T22:23:40.700Z,3.50
2023-02-25T22:26:10.588Z,3.97
2023-02-25T22:28:40.368Z,4.13
2023-02-25T22:31:15.687Z,4.20
2023-02-25T22:33:44.175Z,3.90
2023-02-25T22:36:13.442Z,3.38
2023-02-25T22:38:43.174Z,3.80
2023-02-25T22:41:13.489Z,3.40
2023-02-25T22:43:43.386Z,3.75
2023-02-25T22:46:13.500Z,4.00
2023-02-25T22:48:43.286Z,4.30
2023-02-25T22:51:12.570Z,4.20
2023-02-25T22:53:41.742Z,3.90
2023-02-25T22:56:11.681Z,3.80
2023-02-25T22:58:40.782Z,3.80
2023-02-25T23:01:11.676Z,4.07
2023-02-25T23:03:39.669Z,4.32
2023-02-25T23:06:08.428Z,3.40
2023-02-25T23:08:37.243Z,3.10
2023-02-25T23:11:10.097Z,3.00
2023-02-25T23:13:46.220Z,3.75
2023-02-25T23:16:16.737Z,4.18
2023-02-25T23:18:45.511Z,4.30
2023-02-25T23:21:18.848Z,3.50
2023-02-25T23:23:48.004Z,3.47
2023-02-25T23:26:18.535Z,3.35
2023-02-25T23:28:47.041Z,3.45
2023-02-25T23:31:23.694Z,3.92
2023-02-25T23:33:55.093Z,4.28
2023-02-25T23:36:23.526Z,4.40
2023-02-25T23:38:54.316Z,4.00
2023-02-25T23:41:22.387Z,3.60
2023-02-25T23:43:53.298Z,4.20
2023-02-25T23:46:24.720Z,3.65
2023-02-25T23:48:55.812Z,4.20
2023-02-25T23:51:24.343Z,4.55
2023-02-25T23:53:54.173Z,3.40
2023-02-25T23:56:22.520Z,3.45
2023-02-25T23:58:51.123Z,3.20
